Time;durP1;ratioP1;P1;durP2;ratioP2;P2;SDS_P1;SDS_P2;PMS_P1;PMS_P2;Temp;Humidity;BMP_temperature;BMP_pressure;BME280_temperature;BME280_humidity;BME280_pressure;Samples;Min_cycle;Max_cycle;Signal;HPM_P1;HPM_P2
2021/01/14 00:01:28;;;;;;;16.45;9.08;;;;;;;-0.10;61.36;99423.55;1704186;84;21343;-60
2021/01/14 00:04:33;;;;;;;15.30;9.10;;;;;;;-0.14;61.48;99425.65;1704308;84;21412;-58
2021/01/14 00:07:38;;;;;;;14.75;9.15;;;;;;;-0.13;61.47;99420.62;1703983;84;21322;-59
2021/01/14 00:10:44;;;;;;;19.20;10.98;;;;;;;-0.15;61.48;99423.95;1703427;84;21369;-58
2021/01/14 00:13:50;;;;;;;16.77;10.50;;;;;;;-0.11;61.61;99437.48;1703668;84;21318;-59
2021/01/14 00:16:55;;;;;;;17.37;10.23;;;;;;;-0.06;61.72;99420.46;1704124;84;21183;-60
2021/01/14 00:20:00;;;;;;;18.07;10.78;;;;;;;0.04;61.70;99419.17;1703708;84;21338;-59
2021/01/14 00:23:05;;;;;;;18.17;10.85;;;;;;;0.12;61.65;99415.80;1703820;84;21156;-59
2021/01/14 00:26:11;;;;;;;17.67;10.98;;;;;;;0.18;61.51;99420.64;1704153;84;21322;-59
2021/01/14 00:29:17;;;;;;;18.32;11.30;;;;;;;0.17;61.46;99414.43;1704289;83;21353;-59
2021/01/14 00:32:21;;;;;;;17.48;11.28;;;;;;;0.21;61.48;99423.09;1711323;82;21385;-59
2021/01/14 00:35:27;;;;;;;19.32;11.28;;;;;;;0.26;61.50;99419.00;1721165;83;21421;-59
2021/01/14 00:38:33;;;;;;;16.60;10.40;;;;;;;0.30;61.39;99423.14;1722513;82;21366;-59
2021/01/14 00:41:44;;;;;;;17.85;10.43;;;;;;;0.35;61.41;99424.08;1722403;82;21426;-59
2021/01/14 00:44:49;;;;;;;19.07;10.38;;;;;;;0.37;61.33;99421.59;1721808;82;21251;-59
2021/01/14 00:47:56;;;;;;;15.20;9.98;;;;;;;0.40;61.32;99432.09;1721897;82;21378;-59
2021/01/14 00:51:01;;;;;;;17.82;10.60;;;;;;;0.42;61.35;99433.30;1721896;82;21426;-59
2021/01/14 00:54:07;;;;;;;20.50;10.65;;;;;;;0.40;61.13;99441.51;1721635;83;21583;-58
2021/01/14 00:57:17;;;;;;;28.50;13.75;;;;;;;0.37;61.30;99431.02;1721648;82;21354;-58
2021/01/14 01:00:25;;;;;;;25.45;13.90;;;;;;;0.36;61.51;99436.05;1722568;82;22017;-58
2021/01/14 01:03:31;;;;;;;33.18;18.42;;;;;;;0.38;61.56;99451.55;1721573;82;21381;-59
2021/01/14 01:06:43;;;;;;;32.35;17.85;;;;;;;0.40;61.61;99451.44;1721297;83;21418;-59
2021/01/14 01:09:48;;;;;;;33.80;18.37;;;;;;;0.45;61.68;99458.11;1721794;83;21247;-59
2021/01/14 01:13:05;;;;;;;30.17;16.07;;;;;;;0.49;61.74;99458.18;1721675;82;21374;-59
2021/01/14 01:16:32;;;;;;;22.95;14.43;;;;;;;0.52;61.71;99444.48;1721559;83;21295;-59
2021/01/14 01:19:38;;;;;;;26.07;14.75;;;;;;;0.56;61.60;99445.03;1719623;82;21287;-58
2021/01/14 01:22:43;;;;;;;27.20;15.93;;;;;;;0.59;61.54;99448.31;1712486;84;21280;-59
2021/01/14 01:25:49;;;;;;;26.62;15.68;;;;;;;0.62;61.59;99451.25;1712432;84;21283;-59
2021/01/14 01:28:54;;;;;;;24.70;14.43;;;;;;;0.63;61.49;99453.80;1712423;82;21335;-59
2021/01/14 01:32:00;;;;;;;24.27;14.58;;;;;;;0.67;61.42;99448.48;1712527;84;21769;-59
2021/01/14 01:35:05;;;;;;;23.15;14.25;;;;;;;0.69;61.31;99450.56;1712458;82;21376;-59
2021/01/14 01:38:11;;;;;;;22.32;13.35;;;;;;;0.74;61.24;99456.39;1712324;82;21819;-60
2021/01/14 01:41:17;;;;;;;25.48;14.58;;;;;;;0.79;61.14;99452.80;1712424;84;21221;-60
2021/01/14 01:44:24;;;;;;;14.43;10.32;;;;;;;0.84;61.03;99450.52;1713761;82;21212;-59
2021/01/14 01:47:37;;;;;;;15.95;9.78;;;;;;;0.85;60.76;99445.52;1714690;83;21252;-58
2021/01/14 01:50:42;;;;;;;;;;;;;;;0.81;60.63;99448.10;1717114;83;21209;-58
2021/01/14 01:53:47;;;;;;;19.10;11.40;;;;;;;0.73;60.49;99451.97;1714443;82;20220;-58
2021/01/14 01:56:52;;;;;;;18.82;10.48;;;;;;;0.62;60.59;99452.08;1714361;83;21259;-58
2021/01/14 01:59:59;;;;;;;16.57;9.75;;;;;;;0.57;60.68;99453.49;1714719;82;21344;-58
2021/01/14 02:03:04;;;;;;;15.45;9.65;;;;;;;0.50;60.83;99453.18;1714839;82;21207;-59
2021/01/14 02:06:10;;;;;;;17.30;10.30;;;;;;;0.47;60.96;99454.80;1714324;83;21223;-60
2021/01/14 02:09:23;;;;;;;16.30;10.48;;;;;;;0.46;61.14;99452.24;1714836;82;21234;-58
2021/01/14 02:12:29;;;;;;;16.73;10.75;;;;;;;0.47;61.21;99456.14;1714829;83;21215;-58
2021/01/14 02:15:36;;;;;;;18.32;10.58;;;;;;;0.50;61.28;99455.87;1714881;83;21224;-59
2021/01/14 02:18:40;;;;;;;14.40;9.88;;;;;;;0.55;61.26;99458.15;1727944;81;21228;-58
2021/01/14 02:21:46;;;;;;;18.70;11.35;;;;;;;0.55;61.18;99450.94;1752274;81;21177;-59
2021/01/14 02:25:16;;;;;;;17.02;10.40;;;;;;;0.55;61.14;99446.03;1752061;80;21283;-58
2021/01/14 02:28:21;;;;;;;19.30;10.75;;;;;;;0.55;61.17;99459.02;1752521;80;21320;-58
2021/01/14 02:31:28;;;;;;;21.37;11.73;;;;;;;0.61;61.22;99451.73;1738740;82;21208;-59
2021/01/14 02:34:33;;;;;;;16.82;9.95;;;;;;;0.64;61.17;99458.67;1738759;81;21402;-58
2021/01/14 02:37:38;;;;;;;14.55;9.40;;;;;;;0.66;61.17;99464.30;1738778;82;21433;-58
2021/01/14 02:40:43;;;;;;;17.50;10.18;;;;;;;0.70;61.15;99458.98;1738687;82;21355;-59
2021/01/14 02:43:50;;;;;;;20.10;11.35;;;;;;;0.72;61.05;99466.44;1738844;81;21228;-58
2021/01/14 02:46:56;;;;;;;20.40;11.57;;;;;;;0.77;61.05;99454.77;1738845;82;21350;-58
2021/01/14 02:50:08;;;;;;;15.80;10.38;;;;;;;0.81;61.07;99466.95;1738757;81;21398;-58
2021/01/14 02:53:16;;;;;;;11.70;8.53;;;;;;;0.86;61.05;99466.54;1739036;81;21370;-58
2021/01/14 02:56:21;;;;;;;16.82;9.95;;;;;;;0.90;60.95;99464.81;1738762;82;21757;-59
2021/01/14 02:59:28;;;;;;;15.28;9.60;;;;;;;0.92;60.92;99472.23;1738691;81;21419;-59
2021/01/14 03:02:36;;;;;;;13.50;9.05;;;;;;;0.95;60.94;99473.30;1738702;82;21264;-59
2021/01/14 03:05:41;;;;;;;15.48;10.40;;;;;;;0.97;60.90;99471.81;1738793;82;21209;-59
2021/01/14 03:08:47;;;;;;;17.27;11.38;;;;;;;0.96;60.84;99477.72;1738781;81;21386;-61
2021/01/14 03:11:53;;;;;;;16.80;11.75;;;;;;;0.95;60.82;99480.03;1738937;82;21358;-59
2021/01/14 03:14:58;;;;;;;18.20;12.68;;;;;;;0.97;60.90;99480.77;1738743;81;21275;-58
2021/01/14 03:18:04;;;;;;;18.17;13.32;;;;;;;1.00;60.86;99483.69;1738752;81;21850;-58
2021/01/14 03:21:09;;;;;;;20.97;14.38;;;;;;;0.96;60.89;99484.94;1737704;82;21240;-58
2021/01/14 03:24:16;;;;;;;31.68;20.60;;;;;;;0.96;60.99;99486.29;1712677;82;21315;-58
2021/01/14 03:27:21;;;;;;;32.80;20.75;;;;;;;0.96;61.01;99487.64;1712497;84;21287;-58
2021/01/14 03:30:29;;;;;;;22.32;13.88;;;;;;;1.02;61.10;99500.55;1759840;81;21327;-59
2021/01/14 03:33:35;;;;;;;15.83;10.20;;;;;;;1.04;61.04;99506.66;1759413;80;21906;-59
2021/01/14 03:40:05;;;;;;;14.10;8.95;;;;;;;1.06;61.03;99521.69;1759541;80;21375;-59
2021/01/14 03:43:12;;;;;;;14.80;9.13;;;;;;;1.06;61.12;99526.25;1760569;80;21335;-58
2021/01/14 03:46:23;;;;;;;13.93;9.03;;;;;;;1.06;61.26;99532.98;1738604;82;21433;-59
2021/01/14 03:49:28;;;;;;;15.48;10.38;;;;;;;1.04;61.30;99533.12;1712440;82;21276;-59
2021/01/14 03:52:34;;;;;;;29.15;18.32;;;;;;;1.04;61.33;99530.43;1712533;84;21259;-59
2021/01/14 03:55:41;;;;;;;19.42;13.10;;;;;;;1.07;61.37;99526.11;1712497;84;21243;-59
2021/01/14 03:58:46;;;;;;;30.05;17.27;;;;;;;1.13;61.31;99522.00;1712495;82;21231;-59
2021/01/14 04:01:51;;;;;;;26.02;15.53;;;;;;;1.19;61.20;99518.26;1712446;84;21221;-59
2021/01/14 04:04:56;;;;;;;23.85;14.98;;;;;;;1.22;61.09;99523.38;1712460;82;21349;-59
2021/01/14 04:08:02;;;;;;;19.85;11.60;;;;;;;1.25;61.01;99529.00;1751781;80;21303;-59
2021/01/14 04:11:09;;;;;;;24.23;16.50;;;;;;;1.24;60.98;99525.44;1751896;81;21316;-59
2021/01/14 04:14:14;;;;;;;19.80;12.25;;;;;;;1.23;60.93;99530.97;1739590;81;21367;-59
2021/01/14 04:17:20;;;;;;;17.80;12.15;;;;;;;1.22;60.98;99526.06;1712304;83;21569;-59
2021/01/14 04:20:27;;;;;;;16.95;10.98;;;;;;;1.24;61.07;99528.14;1711345;83;21707;-58
2021/01/14 04:23:33;;;;;;;14.30;9.63;;;;;;;1.25;61.12;99531.69;1722172;82;21768;-58
2021/01/14 04:26:39;;;;;;;16.65;10.80;;;;;;;1.25;61.20;99524.95;1748425;81;21270;-58
2021/01/14 04:29:45;;;;;;;13.35;8.93;;;;;;;1.21;61.27;99518.98;1748311;80;21231;-58
2021/01/14 04:32:50;;;;;;;13.75;9.43;;;;;;;1.15;61.43;99512.80;1753757;80;21341;-58
2021/01/14 04:36:03;;;;;;;13.68;9.40;;;;;;;1.15;61.49;99524.93;1753829;81;21203;-59
2021/01/14 04:39:08;;;;;;;13.83;9.38;;;;;;;1.17;61.55;99532.88;1753594;80;21349;-59
2021/01/14 04:42:15;;;;;;;14.68;9.85;;;;;;;1.17;61.58;99524.27;1753630;82;21188;-58
2021/01/14 04:45:22;;;;;;;17.37;10.98;;;;;;;1.18;61.54;99527.34;1716201;82;21311;-59
2021/01/14 04:48:28;;;;;;;18.32;11.45;;;;;;;1.18;61.60;99526.00;1753362;80;21894;-58
2021/01/14 04:51:36;;;;;;;19.65;12.53;;;;;;;1.20;61.61;99539.34;1753593;82;21357;-59
2021/01/14 04:54:42;;;;;;;17.45;10.58;;;;;;;1.20;61.65;99527.20;1753527;80;21239;-59
2021/01/14 04:57:50;;;;;;;16.23;10.63;;;;;;;1.20;61.67;99544.72;1753587;80;21227;-58
2021/01/14 05:00:58;;;;;;;15.08;9.93;;;;;;;1.16;61.77;99541.44;1753509;82;21338;-59
2021/01/14 05:04:04;;;;;;;15.05;10.05;;;;;;;1.14;61.93;99538.02;1753613;80;21874;-59
2021/01/14 05:07:10;;;;;;;18.15;11.50;;;;;;;1.15;62.07;99542.45;1753382;82;21203;-59
2021/01/14 05:10:17;;;;;;;22.25;13.72;;;;;;;1.10;61.88;99546.05;1753538;82;21337;-60
2021/01/14 05:13:23;;;;;;;23.65;15.13;;;;;;;1.01;62.01;99545.52;1753299;80;21622;-60
2021/01/14 05:16:29;;;;;;;22.70;13.80;;;;;;;0.96;62.15;99535.64;1752922;82;21329;-60
2021/01/14 05:19:34;;;;;;;16.97;11.75;;;;;;;0.97;62.48;99537.34;1752919;80;21345;-60
2021/01/14 05:22:41;;;;;;;23.22;14.25;;;;;;;1.01;62.70;99532.05;1749676;79;21276;-59
2021/01/14 05:25:53;;;;;;;32.35;19.62;;;;;;;1.07;62.67;99524.77;1743718;82;22147;-59
2021/01/14 05:28:57;;;;;;;30.43;18.23;;;;;;;1.15;62.56;99520.89;1728791;82;21385;-59
2021/01/14 05:32:04;;;;;;;23.18;15.78;;;;;;;1.21;62.45;99517.63;1743234;82;21381;-59
2021/01/14 05:35:08;;;;;;;19.90;13.45;;;;;;;1.25;62.39;99522.26;1743510;81;21346;-59
2021/01/14 05:38:14;;;;;;;21.05;13.90;;;;;;;1.27;62.35;99517.55;1743770;81;21239;-59
2021/01/14 05:41:18;;;;;;;22.75;14.70;;;;;;;1.29;62.32;99515.10;1727350;82;21235;-58
2021/01/14 05:44:24;;;;;;;25.60;15.35;;;;;;;1.31;62.30;99517.66;1743412;81;21354;-59
2021/01/14 05:47:31;;;;;;;21.85;13.93;;;;;;;1.31;62.33;99525.26;1744068;82;21327;-59
2021/01/14 05:50:36;;;;;;;21.42;14.15;;;;;;;1.31;62.35;99522.56;1743522;82;21393;-58
2021/01/14 05:53:42;;;;;;;24.18;15.53;;;;;;;1.29;62.24;99521.84;1743482;81;21352;-59
2021/01/14 05:56:57;;;;;;;22.60;13.38;;;;;;;1.27;62.37;99525.16;1742785;82;21350;-58
2021/01/14 06:00:03;;;;;;;30.12;16.75;;;;;;;1.27;62.44;99533.25;1715887;82;21299;-60
2021/01/14 06:03:34;;;;;;;27.85;15.05;;;;;;;1.27;62.40;99536.42;1741231;81;21224;-58
2021/01/14 06:06:38;;;;;;;67.75;46.45;;;;;;;1.31;62.55;99535.18;1741906;82;21392;-59
2021/01/14 06:09:49;;;;;;;21.30;15.30;;;;;;;1.38;62.52;99529.08;1726975;82;21891;-59
2021/01/14 06:12:57;;;;;;;19.62;13.68;;;;;;;1.45;62.40;99527.55;1741151;81;21319;-60
2021/01/14 06:16:09;;;;;;;40.85;25.10;;;;;;;1.49;62.35;99530.83;1732495;82;21561;-59
2021/01/14 06:19:14;;;;;;;30.77;20.53;;;;;;;1.51;62.27;99524.29;1741450;82;21445;-59
2021/01/14 06:22:30;;;;;;;36.48;24.32;;;;;;;1.53;62.24;99527.70;1725413;82;21250;-60
2021/01/14 06:25:31;;;;;;;37.55;24.40;;;;;;;1.57;62.13;99526.08;1713965;83;21725;-60
2021/01/14 06:28:42;;;;;;;22.93;16.77;;;;;;;1.59;62.06;99530.84;1687373;85;21251;-60
2021/01/14 06:31:49;;;;;;;26.30;17.80;;;;;;;1.61;62.09;99536.92;1692785;83;21238;-60
2021/01/14 06:34:58;;;;;;;26.25;17.57;;;;;;;1.65;62.00;99540.54;1722043;82;21756;-59
2021/01/14 06:38:03;;;;;;;28.98;18.48;;;;;;;1.69;62.08;99541.98;1721250;82;21222;-59
2021/01/14 06:41:09;;;;;;;37.17;20.82;;;;;;;1.75;62.03;99544.11;1721614;82;21323;-59
2021/01/14 06:44:16;;;;;;;62.45;32.88;;;;;;;1.81;61.91;99545.41;1715546;83;21278;-58
2021/01/14 06:47:25;;;;;;;68.20;37.53;;;;;;;1.87;61.85;99552.41;1712818;83;21231;-59
2021/01/14 06:50:34;;;;;;;62.43;35.78;;;;;;;1.93;61.67;99562.66;1681899;84;21205;-59
2021/01/14 06:53:39;;;;;;;93.12;42.83;;;;;;;1.97;61.56;99564.07;1702341;83;21760;-59
2021/01/14 06:56:51;;;;;;;86.22;38.67;;;;;;;2.01;61.45;99567.34;1706374;83;21258;-63
2021/01/14 06:59:58;;;;;;;83.07;39.92;;;;;;;2.06;61.34;99566.42;1711444;82;21223;-59
2021/01/14 07:03:29;;;;;;;58.23;30.32;;;;;;;2.13;61.35;99576.99;1701762;82;21565;-59
2021/01/14 07:06:34;;;;;;;36.70;23.65;;;;;;;2.22;61.28;99579.69;1673990;84;21569;-61
2021/01/14 07:09:39;;;;;;;34.00;20.90;;;;;;;2.36;60.95;99576.55;1712768;83;21254;-60
2021/01/14 07:12:49;;;;;;;29.65;19.57;;;;;;;2.50;60.68;99585.58;1709839;83;21744;-60
2021/01/14 07:15:54;;;;;;;33.60;21.15;;;;;;;2.63;60.35;99585.27;1674407;83;21782;-59
2021/01/14 07:19:00;;;;;;;35.35;23.60;;;;;;;2.70;60.06;99592.64;1715223;83;21770;-57
2021/01/14 07:22:06;;;;;;;35.30;21.65;;;;;;;2.73;59.71;99592.84;1715720;82;21732;-61
2021/01/14 07:25:11;;;;;;;32.78;17.70;;;;;;;2.65;59.47;99599.46;1725178;79;21701;-59
2021/01/14 07:28:16;;;;;;;34.43;21.30;;;;;;;2.50;59.70;99601.78;1727749;83;21820;-58
2021/01/14 07:31:31;;;;;;;29.77;19.42;;;;;;;2.53;59.97;99616.35;1727169;83;21224;-59
2021/01/14 07:34:49;;;;;;;30.17;19.20;;;;;;;2.55;59.97;99613.50;1729796;83;21244;-60
2021/01/14 07:38:00;;;;;;;33.28;21.40;;;;;;;2.61;60.00;99623.73;1729106;83;21231;-60
2021/01/14 07:41:08;;;;;;;45.15;27.85;;;;;;;2.61;60.08;99625.94;1729403;83;21256;-62
2021/01/14 07:44:21;;;;;;;48.40;29.45;;;;;;;2.66;59.99;99634.44;1727773;83;21597;-60
2021/01/14 07:47:38;;;;;;;41.35;25.77;;;;;;;2.69;59.93;99633.31;1728186;83;21192;-60
2021/01/14 07:50:43;;;;;;;36.75;22.80;;;;;;;2.69;59.82;99634.17;1727284;82;21227;-61
2021/01/14 07:53:48;;;;;;;33.33;20.90;;;;;;;2.73;59.72;99627.95;1728184;81;21244;-60
2021/01/14 07:56:59;;;;;;;39.33;21.68;;;;;;;2.81;59.66;99634.84;1729032;83;21216;-55
2021/01/14 08:00:07;;;;;;;33.98;21.33;;;;;;;2.92;59.59;99627.92;1727052;83;21224;-59
2021/01/14 08:03:23;;;;;;;36.80;23.18;;;;;;;3.01;59.19;99623.02;1727510;83;21296;-61
2021/01/14 08:06:37;;;;;;;35.03;21.10;;;;;;;3.09;59.23;99619.91;1728088;83;21212;-58
2021/01/14 08:09:49;;;;;;;35.73;21.93;;;;;;;3.22;58.89;99624.15;1728894;83;21258;-60
2021/01/14 08:12:56;;;;;;;35.35;21.27;;;;;;;3.20;58.69;99626.14;1729154;81;21224;-60
2021/01/14 08:16:02;;;;;;;36.00;21.75;;;;;;;3.24;58.66;99633.80;1729199;83;21442;-59
2021/01/14 08:19:28;;;;;;;37.95;22.15;;;;;;;3.26;58.48;99626.89;1729281;81;21267;-60
2021/01/14 08:22:33;;;;;;;42.93;24.27;;;;;;;3.38;58.60;99628.43;1728977;83;21582;-59
2021/01/14 08:25:43;;;;;;;37.20;24.05;;;;;;;3.60;58.36;99628.04;1719549;81;21394;-60
2021/01/14 08:28:48;;;;;;;37.08;23.00;;;;;;;3.75;57.65;99634.14;1745424;81;21381;-60
2021/01/14 08:31:55;;;;;;;34.43;22.40;;;;;;;3.76;57.15;99635.84;1706636;82;21720;-60
2021/01/14 08:35:02;;;;;;;38.70;23.62;;;;;;;3.49;56.85;99642.59;1722334;82;21440;-60
2021/01/14 08:38:10;;;;;;;39.03;22.73;;;;;;;3.19;57.46;99636.62;1720398;83;21306;-60
2021/01/14 08:41:20;;;;;;;37.42;24.75;;;;;;;2.97;57.84;99622.93;1687959;85;21395;-60
2021/01/14 08:44:26;;;;;;;41.88;24.25;;;;;;;2.83;58.51;99624.75;1713122;83;21245;-60
2021/01/14 08:47:52;;;;;;;38.98;23.45;;;;;;;2.79;58.95;99624.70;1705654;84;21810;-60
2021/01/14 08:51:11;;;;;;;40.92;22.93;;;;;;;2.66;59.10;99620.92;1722078;83;21345;-59
2021/01/14 08:54:17;;;;;;;41.53;22.48;;;;;;;2.62;59.55;99612.77;1708624;82;21281;-60
2021/01/14 08:57:22;;;;;;;46.23;23.92;;;;;;;2.72;59.60;99614.97;1697572;83;21269;-59
2021/01/14 09:00:31;;;;;;;52.00;24.32;;;;;;;2.62;59.43;99622.72;1704503;84;21218;-61
2021/01/14 09:03:35;;;;;;;47.60;24.92;;;;;;;2.44;59.78;99619.89;1696880;83;21843;-60
2021/01/14 09:06:46;;;;;;;51.70;25.62;;;;;;;2.47;60.39;99615.58;1705059;84;21206;-60
2021/01/14 09:09:51;;;;;;;48.28;27.37;;;;;;;2.62;60.34;99620.87;1698062;83;21365;-59
2021/01/14 09:12:56;;;;;;;46.98;25.30;;;;;;;2.65;60.20;99615.19;1714108;82;21691;-60
2021/01/14 09:16:06;;;;;;;41.80;25.27;;;;;;;2.66;60.10;99610.12;1720553;82;21238;-61
2021/01/14 09:19:28;;;;;;;42.80;25.30;;;;;;;2.52;60.12;99611.92;1697023;83;21466;-59
2021/01/14 09:22:35;;;;;;;42.45;24.25;;;;;;;2.43;60.51;99615.98;1686651;83;21755;-58
2021/01/14 09:25:42;;;;;;;40.00;24.45;;;;;;;2.37;60.65;99618.77;1703246;84;21215;-59
2021/01/14 09:29:03;;;;;;;49.85;27.60;;;;;;;2.23;60.94;99612.95;1743614;82;21211;-59
2021/01/14 09:32:21;;;;;;;41.88;25.37;;;;;;;2.18;61.59;99614.73;1700047;83;21270;-58
2021/01/14 09:35:30;;;;;;;42.88;25.82;;;;;;;2.34;61.55;99616.85;1731325;82;21820;-58
2021/01/14 09:38:49;;;;;;;40.60;25.12;;;;;;;2.54;61.60;99613.13;1744068;82;21345;-60
2021/01/14 09:42:00;;;;;;;42.38;25.45;;;;;;;2.74;61.32;99623.76;1744693;82;21366;-60
2021/01/14 09:45:08;;;;;;;46.92;27.27;;;;;;;2.77;60.79;99626.20;1713240;82;21259;-58
2021/01/14 09:48:17;;;;;;;42.65;25.70;;;;;;;2.62;60.81;99624.06;1745234;82;21385;-57
2021/01/14 09:51:21;;;;;;;49.25;29.25;;;;;;;2.61;61.08;99631.83;1714793;82;21235;-59
2021/01/14 09:54:27;;;;;;;67.53;36.77;;;;;;;2.63;61.18;99628.50;1739720;82;21271;-59
2021/01/14 09:57:33;;;;;;;59.05;33.40;;;;;;;2.69;61.22;99633.31;1735758;82;21255;-59
2021/01/14 10:00:38;;;;;;;67.92;35.55;;;;;;;2.69;61.06;99633.31;1734393;82;21215;-59
2021/01/14 10:03:43;;;;;;;55.08;30.75;;;;;;;2.59;61.06;99624.36;1739753;82;21267;-59
2021/01/14 10:06:57;;;;;;;55.80;30.70;;;;;;;2.51;61.38;99620.17;1724565;82;21223;-58
2021/01/14 10:10:04;;;;;;;51.08;29.48;;;;;;;2.41;61.58;99620.17;1740532;82;21180;-57
2021/01/14 10:13:22;;;;;;;49.85;29.52;;;;;;;2.23;61.86;99619.70;1742268;82;21211;-58
2021/01/14 10:16:29;;;;;;;44.98;27.25;;;;;;;2.09;62.24;99612.89;1743457;82;21590;-59
2021/01/14 10:19:35;;;;;;;48.25;28.42;;;;;;;1.95;62.65;99615.14;1743125;82;21219;-58
2021/01/14 10:22:40;;;;;;;52.50;29.67;;;;;;;1.90;62.96;99606.13;1712830;82;21203;-57
2021/01/14 10:25:50;;;;;;;49.10;28.38;;;;;;;1.94;63.28;99608.88;1736330;82;21506;-59
2021/01/14 10:28:55;;;;;;;47.65;27.10;;;;;;;2.05;63.34;99603.35;1679442;82;21231;-58
2021/01/14 10:32:03;;;;;;;50.85;29.23;;;;;;;2.12;63.33;99596.89;1694959;84;21282;-58
2021/01/14 10:35:08;;;;;;;52.17;28.02;;;;;;;2.04;63.00;99599.45;1708845;83;21298;-58
2021/01/14 10:38:20;;;;;;;52.17;28.30;;;;;;;1.91;63.24;99587.58;1712289;82;21215;-57
2021/01/14 10:41:29;;;;;;;48.15;28.32;;;;;;;1.83;63.41;99587.91;1740002;82;21243;-55
2021/01/14 10:44:34;;;;;;;49.67;30.40;;;;;;;1.79;63.80;99586.50;1740820;82;21222;-56
2021/01/14 10:47:43;;;;;;;48.70;28.32;;;;;;;1.84;63.91;99584.24;1732896;82;21227;-57
2021/01/14 10:50:58;;;;;;;50.60;29.77;;;;;;;1.87;63.86;99578.56;1737274;82;21207;-57
2021/01/14 10:54:03;;;;;;;50.05;30.27;;;;;;;1.94;63.90;99581.03;1739057;82;21330;-55
2021/01/14 10:57:08;;;;;;;50.90;30.00;;;;;;;2.04;63.88;99588.16;1742198;82;21207;-55
2021/01/14 11:00:29;;;;;;;53.65;30.55;;;;;;;2.20;63.60;99584.89;1742318;81;21354;-56
2021/01/14 11:03:35;;;;;;;50.45;29.37;;;;;;;2.26;63.45;99578.91;1739942;82;21779;-55
2021/01/14 11:06:43;;;;;;;48.38;28.60;;;;;;;2.37;63.14;99563.42;1738922;82;21259;-56
2021/01/14 11:09:59;;;;;;;54.85;31.07;;;;;;;2.32;62.85;99551.33;1739942;81;21247;-57
2021/01/14 11:13:11;;;;;;;50.55;29.82;;;;;;;2.29;62.89;99552.48;1741569;81;21513;-54
2021/01/14 11:16:17;;;;;;;51.60;29.42;;;;;;;2.37;62.91;99553.11;1740790;82;21725;-56
2021/01/14 11:19:23;;;;;;;54.20;31.30;;;;;;;2.42;62.60;99545.42;1740254;82;21346;-56
2021/01/14 11:22:34;;;;;;;46.28;28.02;;;;;;;2.50;62.68;99556.36;1741087;82;21765;-57
2021/01/14 11:25:39;;;;;;;45.90;27.32;;;;;;;2.56;62.46;99555.77;1741419;82;21794;-56
2021/01/14 11:28:45;;;;;;;50.98;30.72;;;;;;;2.54;62.31;99551.00;1736801;81;21220;-56
2021/01/14 11:31:50;;;;;;;54.30;31.10;;;;;;;2.45;62.16;99551.88;1726931;83;21188;-56
2021/01/14 11:34:56;;;;;;;47.98;26.73;;;;;;;2.39;62.38;99538.48;1725507;83;21251;-57
2021/01/14 11:38:02;;;;;;;48.75;26.75;;;;;;;2.29;62.52;99537.63;1709717;83;21208;-57
2021/01/14 11:41:07;;;;;;;47.20;28.38;;;;;;;2.23;62.79;99542.27;1725503;83;21200;-56
2021/01/14 11:44:14;;;;;;;53.33;29.42;;;;;;;2.16;62.99;99532.16;1679680;84;21741;-55
2021/01/14 11:47:20;;;;;;;51.98;30.02;;;;;;;2.13;63.37;99532.45;1666391;85;21236;-55
2021/01/14 11:50:25;;;;;;;54.13;31.27;;;;;;;2.23;63.56;99536.00;1722249;81;21510;-56
2021/01/14 11:53:31;;;;;;;50.43;29.12;;;;;;;2.34;63.60;99538.05;1717091;81;21208;-54
2021/01/14 11:56:36;;;;;;;45.33;26.95;;;;;;;2.44;63.60;99530.77;1679726;85;21335;-56
2021/01/14 11:59:42;;;;;;;57.93;31.48;;;;;;;2.43;63.31;99537.66;1724689;82;21858;-56
2021/01/14 12:02:47;;;;;;;56.28;32.65;;;;;;;2.35;63.63;99534.84;1724698;83;21219;-56
2021/01/14 12:05:53;;;;;;;55.88;31.80;;;;;;;2.43;63.82;99533.62;1719617;83;21216;-56
2021/01/14 12:08:58;;;;;;;53.30;31.25;;;;;;;2.47;63.52;99537.75;1725334;82;21229;-55
2021/01/14 12:12:04;;;;;;;57.03;32.90;;;;;;;2.48;63.87;99538.95;1746716;81;21807;-56
2021/01/14 12:15:11;;;;;;;62.00;36.33;;;;;;;2.62;63.79;99526.81;1745940;82;21332;-58
2021/01/14 12:18:16;;;;;;;60.00;34.25;;;;;;;2.72;63.62;99530.35;1744438;80;21741;-55
2021/01/14 12:21:25;;;;;;;58.35;33.88;;;;;;;2.86;63.53;99532.57;1746713;81;22045;-54
2021/01/14 12:24:31;;;;;;;52.60;30.32;;;;;;;2.91;63.28;99534.34;1709846;83;21247;-55
2021/01/14 12:27:37;;;;;;;58.35;32.30;;;;;;;2.96;63.05;99537.45;1727564;82;21227;-56
2021/01/14 12:30:42;;;;;;;56.92;31.23;;;;;;;2.92;62.97;99538.23;1737026;79;21218;-56
2021/01/14 12:33:48;;;;;;;53.90;32.13;;;;;;;2.95;62.97;99543.83;1704670;82;21286;-57
2021/01/14 12:36:56;;;;;;;56.15;31.70;;;;;;;3.00;63.00;99549.16;1708925;82;21867;-56
2021/01/14 12:40:01;;;;;;;52.58;29.60;;;;;;;2.95;62.74;99555.51;1734158;82;21682;-59
2021/01/14 12:43:06;;;;;;;55.15;31.45;;;;;;;2.86;62.98;99554.19;1692327;82;21207;-56
2021/01/14 12:46:10;;;;;;;60.55;33.45;;;;;;;2.80;63.16;99556.14;1758023;81;21243;-55
2021/01/14 12:49:17;;;;;;;59.50;33.35;;;;;;;2.83;63.42;99551.79;1734300;81;21337;-56
2021/01/14 12:52:23;;;;;;;59.08;33.18;;;;;;;2.88;63.42;99561.66;1711060;84;21769;-55
2021/01/14 12:55:27;;;;;;;66.37;33.48;;;;;;;2.95;63.33;99562.75;1710720;84;21754;-55
2021/01/14 12:58:34;;;;;;;66.77;34.85;;;;;;;2.88;63.16;99558.96;1698274;84;21762;-55
2021/01/14 13:01:40;;;;;;;63.25;35.30;;;;;;;2.82;63.48;99555.50;1698428;83;21197;-55
2021/01/14 13:04:45;;;;;;;68.67;38.00;;;;;;;2.83;63.72;99555.35;1695652;82;21254;-55
2021/01/14 13:07:50;;;;;;;77.32;38.45;;;;;;;2.88;63.70;99550.84;1712707;83;21216;-56
2021/01/14 13:10:55;;;;;;;68.83;35.35;;;;;;;2.90;63.76;99554.27;1710475;83;21205;-55
2021/01/14 13:14:01;;;;;;;63.55;35.35;;;;;;;2.94;63.69;99555.17;1711271;82;21239;-57
2021/01/14 13:17:07;;;;;;;59.77;33.08;;;;;;;2.97;63.76;99556.22;1710806;84;21237;-56
2021/01/14 13:20:14;;;;;;;61.68;32.83;;;;;;;2.94;63.53;99558.36;1709337;84;21227;-55
2021/01/14 13:23:19;;;;;;;65.05;32.90;;;;;;;2.83;63.75;99555.84;1706152;84;21228;-56
2021/01/14 13:26:24;;;;;;;86.17;42.48;;;;;;;2.81;64.08;99552.42;1709876;84;21279;-55
2021/01/14 13:29:30;;;;;;;71.22;34.73;;;;;;;2.79;64.16;99557.15;1744293;82;21539;-55
2021/01/14 13:32:35;;;;;;;72.70;35.33;;;;;;;2.80;64.35;99560.19;1703340;82;21365;-55
2021/01/14 13:35:41;;;;;;;68.30;32.75;;;;;;;2.83;64.37;99566.65;1700404;84;21788;-55
2021/01/14 13:38:50;;;;;;;75.42;37.80;;;;;;;2.89;64.45;99574.16;1670666;84;21683;-56
2021/01/14 13:41:57;;;;;;;72.32;36.75;;;;;;;2.88;64.39;99571.12;1699968;84;21217;-56
2021/01/14 13:45:02;;;;;;;67.37;35.48;;;;;;;2.92;64.35;99581.48;1699971;83;21353;-56
2021/01/14 13:48:08;;;;;;;66.77;34.53;;;;;;;2.93;64.30;99584.53;1685917;84;21295;-58
2021/01/14 13:51:12;;;;;;;63.58;34.83;;;;;;;2.92;64.41;99587.38;1711734;83;21254;-56
2021/01/14 13:54:21;;;;;;;59.83;32.73;;;;;;;2.90;64.46;99580.77;1711027;84;21287;-56
2021/01/14 13:57:27;;;;;;;64.77;34.95;;;;;;;2.91;64.54;99578.93;1712305;83;21215;-55
2021/01/14 14:00:33;;;;;;;56.23;32.13;;;;;;;2.88;64.56;99578.73;1711037;83;21713;-56
2021/01/14 14:03:40;;;;;;;66.95;34.70;;;;;;;2.86;64.75;99576.67;1727726;81;21900;-55
2021/01/14 14:06:52;;;;;;;63.17;33.80;;;;;;;2.86;64.87;99578.52;1746909;81;21316;-57
2021/01/14 14:09:57;;;;;;;75.42;37.03;;;;;;;2.84;64.85;99589.47;1746631;80;21388;-55
2021/01/14 14:13:02;;;;;;;69.47;33.78;;;;;;;2.74;64.97;99583.23;1746587;81;21362;-55
2021/01/14 14:16:07;;;;;;;72.85;36.38;;;;;;;2.73;65.31;99591.48;1745739;81;21736;-55
2021/01/14 14:19:13;;;;;;;70.28;35.85;;;;;;;2.74;65.34;99593.20;1745537;81;21268;-55
2021/01/14 14:22:18;;;;;;;71.05;35.28;;;;;;;2.69;65.34;99587.39;1747487;81;21331;-55
2021/01/14 14:25:24;;;;;;;76.25;40.15;;;;;;;2.64;65.51;99589.66;1746351;82;21220;-56
2021/01/14 14:28:31;;;;;;;66.92;35.65;;;;;;;2.54;65.61;99600.97;1744549;82;21223;-56
2021/01/14 14:31:39;;;;;;;72.90;37.58;;;;;;;2.43;65.79;99597.94;1746656;81;21234;-56
2021/01/14 14:34:45;;;;;;;64.50;35.98;;;;;;;2.30;66.12;99604.13;1691389;85;21364;-55
2021/01/14 14:37:51;;;;;;;70.00;36.98;;;;;;;2.25;66.62;99602.87;1709874;83;21256;-56